Time;durP1;ratioP1;P1;durP2;ratioP2;P2;SDS_P1;SDS_P2;PMS_P1;PMS_P2;Temp;Humidity;BMP_temperature;BMP_pressure;BME280_temperature;BME280_humidity;BME280_pressure;Samples;Min_cycle;Max_cycle;Signal;HPM_P1;HPM_P2
2022/07/16 00:02:44;;;;;;;4.93;2.00;;;13.60;99.90;;;;;;5014495;28;20555;-39
2022/07/16 00:05:10;;;;;;;2.63;2.00;;;13.60;99.90;;;;;;5014558;28;20181;-37
2022/07/16 00:07:35;;;;;;;3.93;1.80;;;13.50;99.90;;;;;;5014178;28;20188;-38
2022/07/16 00:10:01;;;;;;;5.47;1.73;;;13.50;99.90;;;;;;5014141;28;20637;-38
2022/07/16 00:12:27;;;;;;;2.40;1.90;;;13.50;99.90;;;;;;5014205;28;20182;-40
2022/07/16 00:14:53;;;;;;;4.73;2.13;;;13.40;99.90;;;;;;5012317;28;20185;-36
2022/07/16 00:17:19;;;;;;;2.97;1.90;;;13.40;99.90;;;;;;5012988;28;20189;-38
2022/07/16 00:19:45;;;;;;;2.80;1.80;;;13.40;99.90;;;;;;5014177;28;20213;-38
2022/07/16 00:22:10;;;;;;;3.07;2.03;;;13.40;99.90;;;;;;5014419;28;20276;-39
2022/07/16 00:24:36;;;;;;;2.70;1.63;;;13.30;99.90;;;;;;5014289;28;20246;-39
2022/07/16 00:27:02;;;;;;;2.90;1.90;;;13.30;99.90;;;;;;5013978;28;20185;-40
2022/07/16 00:29:28;;;;;;;3.23;1.70;;;13.30;99.90;;;;;;5013937;28;20288;-37
2022/07/16 00:31:54;;;;;;;3.00;1.87;;;13.20;99.90;;;;;;5014108;28;20293;-38
2022/07/16 00:34:20;;;;;;;2.27;1.70;;;13.20;99.90;;;;;;5014232;28;20228;-38
2022/07/16 00:36:47;;;;;;;3.80;2.13;;;13.10;99.90;;;;;;5014035;28;20268;-39
2022/07/16 00:39:13;;;;;;;2.97;2.03;;;13.10;99.90;;;;;;5014060;28;20208;-39
2022/07/16 00:41:41;;;;;;;2.30;1.73;;;13.00;99.90;;;;;;5014638;28;20235;-38
2022/07/16 00:44:10;;;;;;;2.90;2.03;;;13.00;99.90;;;;;;5014521;28;20174;-38
2022/07/16 00:46:37;;;;;;;5.03;2.00;;;12.90;99.90;;;;;;5013898;28;20216;-37
2022/07/16 00:49:03;;;;;;;3.10;2.37;;;12.80;99.90;;;;;;5013963;28;20182;-38
2022/07/16 00:51:29;;;;;;;3.37;1.97;;;12.80;99.90;;;;;;5013553;28;20665;-39
2022/07/16 00:53:56;;;;;;;5.37;2.17;;;12.80;99.90;;;;;;5013616;28;20181;-39
2022/07/16 00:56:23;;;;;;;2.97;2.30;;;12.70;99.90;;;;;;5013996;28;20207;-37
2022/07/16 00:58:50;;;;;;;4.43;2.83;;;12.70;99.90;;;;;;5014163;28;20174;-39
2022/07/16 01:01:17;;;;;;;3.43;2.10;;;12.60;99.90;;;;;;5013885;28;20188;-39
2022/07/16 01:03:43;;;;;;;3.10;1.83;;;12.60;99.90;;;;;;5013867;28;20193;-39
2022/07/16 01:06:10;;;;;;;9.33;2.27;;;12.50;99.90;;;;;;5013763;28;20551;-40
2022/07/16 01:08:39;;;;;;;4.10;2.17;;;12.50;99.90;;;;;;5013661;28;20185;-37
2022/07/16 01:11:06;;;;;;;4.67;2.27;;;12.50;99.90;;;;;;5013914;28;20209;-39
2022/07/16 01:13:34;;;;;;;4.13;2.63;;;12.40;99.90;;;;;;5014316;28;20579;-39
2022/07/16 01:16:00;;;;;;;3.67;2.30;;;12.40;99.90;;;;;;5013394;28;20575;-37
2022/07/16 01:18:26;;;;;;;3.47;2.60;;;12.40;99.90;;;;;;5013690;28;20184;-37
2022/07/16 01:20:51;;;;;;;3.83;2.43;;;12.40;99.90;;;;;;5013478;28;20238;-38
2022/07/16 01:23:24;;;;;;;4.73;2.30;;;12.30;99.90;;;;;;5013521;28;20185;-38
2022/07/16 01:25:50;;;;;;;6.23;2.50;;;12.30;99.90;;;;;;5016851;28;20196;-37
2022/07/16 01:28:16;;;;;;;2.67;1.90;;;12.30;99.90;;;;;;5017390;28;20182;-38
2022/07/16 01:30:43;;;;;;;3.60;2.10;;;12.20;99.90;;;;;;5016973;28;20220;-39
2022/07/16 01:33:29;;;;;;;4.90;2.37;;;12.20;99.90;;;;;;5017107;28;20193;-42
2022/07/16 01:36:01;;;;;;;2.70;1.80;;;12.10;99.90;;;;;;5016961;28;20162;-41
2022/07/16 01:38:28;;;;;;;4.13;2.07;;;12.10;99.90;;;;;;5017018;28;20552;-40
2022/07/16 01:40:54;;;;;;;2.93;2.23;;;12.00;99.90;;;;;;5017021;28;20206;-38
2022/07/16 01:43:23;;;;;;;6.50;2.00;;;12.00;99.90;;;;;;5016904;28;20206;-40
2022/07/16 01:45:50;;;;;;;2.40;2.20;;;12.00;99.90;;;;;;5015620;28;20194;-40
2022/07/16 01:48:16;;;;;;;2.40;2.20;;;12.00;99.90;;;;;;5016798;28;20615;-39
2022/07/16 01:50:43;;;;;;;3.10;2.03;;;12.00;99.90;;;;;;5016597;28;20292;-41
2022/07/16 01:53:10;;;;;;;2.60;2.17;;;11.90;99.90;;;;;;5016729;28;20182;-39
2022/07/16 01:55:36;;;;;;;5.40;2.20;;;11.90;99.90;;;;;;5016721;28;20696;-38
2022/07/16 01:58:06;;;;;;;4.07;2.23;;;11.90;99.90;;;;;;5016837;28;20217;-41
2022/07/16 02:00:34;;;;;;;3.23;2.00;;;11.90;99.90;;;;;;5017005;28;20204;-41
2022/07/16 02:03:00;;;;;;;2.93;1.93;;;11.90;99.90;;;;;;5016547;28;20646;-37
2022/07/16 02:05:26;;;;;;;3.87;1.90;;;11.90;99.90;;;;;;5016676;28;20186;-40
2022/07/16 02:07:51;;;;;;;2.50;2.30;;;11.80;99.90;;;;;;5016347;28;20185;-38
2022/07/16 02:10:18;;;;;;;4.80;2.30;;;11.90;99.90;;;;;;5016209;28;20225;-41
2022/07/16 02:12:44;;;;;;;3.43;2.70;;;11.80;99.90;;;;;;5016396;28;20193;-38
2022/07/16 02:15:10;;;;;;;6.53;2.13;;;11.80;99.90;;;;;;5016280;28;20236;-41
2022/07/16 02:17:36;;;;;;;2.63;2.27;;;11.80;99.90;;;;;;5016170;28;20228;-40
2022/07/16 02:20:05;;;;;;;3.77;2.30;;;11.80;99.90;;;;;;5014873;28;20670;-39
2022/07/16 02:22:30;;;;;;;3.77;2.53;;;11.70;99.90;;;;;;5016131;28;20212;-39
2022/07/16 02:24:56;;;;;;;5.40;2.27;;;11.70;99.90;;;;;;5016138;28;20596;-38
2022/07/16 02:27:22;;;;;;;3.80;1.97;;;11.70;99.90;;;;;;5030621;23;20192;-43
2022/07/16 02:29:47;;;;;;;3.57;2.30;;;11.70;99.90;;;;;;5016067;28;20229;-43
2022/07/16 02:32:13;;;;;;;3.07;1.90;;;11.70;99.90;;;;;;5016470;28;20523;-41
2022/07/16 02:34:39;;;;;;;5.43;2.40;;;11.70;99.90;;;;;;5016255;28;20170;-42
2022/07/16 02:37:05;;;;;;;2.47;2.00;;;11.70;99.90;;;;;;5015038;28;20650;-41
2022/07/16 02:39:31;;;;;;;2.57;2.03;;;11.70;99.90;;;;;;5016155;28;20233;-43
2022/07/16 02:41:56;;;;;;;4.77;2.00;;;11.70;99.90;;;;;;5014680;28;20637;-41
2022/07/16 02:44:22;;;;;;;4.53;2.20;;;11.70;99.90;;;;;;5015788;28;20177;-41
2022/07/16 02:46:47;;;;;;;6.57;2.40;;;11.70;99.90;;;;;;5016164;28;20232;-41
2022/07/16 02:49:13;;;;;;;4.97;2.07;;;11.70;99.90;;;;;;5015998;28;20200;-41
2022/07/16 02:51:39;;;;;;;2.77;2.10;;;11.70;99.90;;;;;;5015584;28;20205;-44
2022/07/16 02:54:04;;;;;;;3.10;2.10;;;11.70;99.90;;;;;;5015901;28;20711;-41
2022/07/16 02:56:30;;;;;;;2.90;2.10;;;11.70;99.90;;;;;;5015913;28;20182;-43
2022/07/16 02:58:56;;;;;;;5.27;2.63;;;11.80;99.90;;;;;;5015505;28;20640;-45
2022/07/16 03:01:22;;;;;;;3.37;2.20;;;11.80;99.90;;;;;;5015705;28;20556;-39
2022/07/16 03:03:47;;;;;;;4.17;2.47;;;11.80;99.90;;;;;;5015723;28;20193;-38
2022/07/16 03:06:13;;;;;;;2.93;2.47;;;11.80;99.90;;;;;;5015370;28;20181;-41
2022/07/16 03:08:39;;;;;;;4.23;2.47;;;11.90;99.90;;;;;;5015262;28;20335;-38
2022/07/16 03:11:04;;;;;;;2.83;2.17;;;11.90;99.90;;;;;;5015273;28;20209;-41
2022/07/16 03:13:30;;;;;;;2.97;2.13;;;11.90;99.90;;;;;;5015500;28;20184;-40
2022/07/16 03:15:55;;;;;;;4.80;2.83;;;12.00;99.90;;;;;;5015597;28;20256;-39
2022/07/16 03:18:21;;;;;;;6.07;2.30;;;11.90;99.90;;;;;;5015211;28;20641;-39
2022/07/16 03:20:48;;;;;;;4.60;2.70;;;12.00;99.90;;;;;;5015413;28;20197;-39
2022/07/16 03:23:13;;;;;;;3.53;2.50;;;12.00;99.90;;;;;;5015283;28;20208;-41
2022/07/16 03:25:41;;;;;;;6.40;2.97;;;12.00;99.90;;;;;;5015277;28;20641;-38
2022/07/16 03:28:09;;;;;;;4.53;2.60;;;12.10;99.90;;;;;;5015003;28;20224;-40
2022/07/16 03:30:35;;;;;;;3.47;2.80;;;12.20;99.90;;;;;;5015111;28;20619;-41
2022/07/16 03:33:02;;;;;;;7.63;2.67;;;12.20;99.90;;;;;;5015146;28;20177;-40
2022/07/16 03:35:28;;;;;;;3.30;2.33;;;12.30;99.90;;;;;;5015307;28;20534;-41
2022/07/16 03:40:37;;;;;;;3.67;2.60;;;12.40;99.90;;;;;;5015122;28;20211;-41
2022/07/16 03:43:03;;;;;;;4.90;2.40;;;12.40;99.90;;;;;;5014971;28;20548;-40
2022/07/16 03:45:28;;;;;;;3.73;2.27;;;12.40;99.90;;;;;;5014659;28;20185;-40
2022/07/16 03:47:54;;;;;;;2.60;2.40;;;12.40;99.90;;;;;;5014743;28;20188;-41
2022/07/16 03:50:20;;;;;;;3.00;2.47;;;12.40;99.90;;;;;;5013190;28;20205;-41
2022/07/16 03:52:46;;;;;;;5.60;3.00;;;12.50;99.90;;;;;;5013247;28;20173;-39
2022/07/16 03:55:12;;;;;;;6.37;2.83;;;12.50;99.90;;;;;;5014554;28;20169;-41
2022/07/16 03:57:38;;;;;;;6.03;3.00;;;12.60;99.90;;;;;;5014656;28;20625;-42
2022/07/16 04:00:05;;;;;;;5.83;2.60;;;12.60;99.90;;;;;;5015721;28;20277;-40
2022/07/16 04:02:30;;;;;;;4.73;2.87;;;12.70;99.90;;;;;;5013378;28;20235;-40
2022/07/16 04:04:56;;;;;;;5.00;2.97;;;12.70;99.90;;;;;;5014261;28;20178;-40
2022/07/16 04:07:22;;;;;;;3.90;2.77;;;12.70;99.90;;;;;;5014461;28;20186;-38
2022/07/16 04:09:47;;;;;;;3.70;2.60;;;12.80;99.90;;;;;;5014052;28;20708;-38
2022/07/16 04:12:13;;;;;;;5.37;3.23;;;12.70;99.90;;;;;;5014134;28;20178;-37
2022/07/16 04:14:39;;;;;;;6.77;3.13;;;12.80;99.90;;;;;;5014120;28;20201;-39
2022/07/16 04:17:04;;;;;;;10.10;3.47;;;12.90;99.90;;;;;;5014043;28;20261;-41
2022/07/16 04:19:30;;;;;;;5.27;3.20;;;12.90;99.90;;;;;;5014270;28;20237;-40
2022/07/16 04:21:55;;;;;;;5.90;3.17;;;12.90;99.90;;;;;;5014261;28;20241;-38
2022/07/16 04:24:21;;;;;;;9.40;2.80;;;12.90;99.90;;;;;;5014080;28;20644;-37
2022/07/16 04:26:46;;;;;;;6.17;3.00;;;13.00;99.90;;;;;;5014013;28;20186;-39
2022/07/16 04:29:13;;;;;;;3.47;2.60;;;13.00;99.90;;;;;;5013791;28;20209;-38
2022/07/16 04:31:39;;;;;;;6.33;3.10;;;13.10;99.90;;;;;;5013786;28;20657;-40
2022/07/16 04:34:04;;;;;;;6.47;3.27;;;13.10;99.90;;;;;;5013868;28;20264;-38
2022/07/16 04:36:30;;;;;;;6.00;2.83;;;13.10;99.90;;;;;;5013842;28;20536;-40
2022/07/16 04:38:56;;;;;;;6.27;3.30;;;13.20;99.90;;;;;;5013777;28;20245;-37
2022/07/16 04:41:21;;;;;;;5.67;3.40;;;13.20;99.90;;;;;;5013754;28;20192;-38
2022/07/16 04:43:47;;;;;;;5.97;3.10;;;13.30;99.90;;;;;;5014035;28;20567;-39
2022/07/16 04:46:12;;;;;;;6.13;2.80;;;13.30;99.90;;;;;;5013936;28;20188;-38
2022/07/16 04:48:38;;;;;;;8.20;3.40;;;13.40;99.90;;;;;;5013740;28;20189;-41
2022/07/16 04:51:03;;;;;;;7.70;2.90;;;13.50;99.90;;;;;;5014924;28;20272;-40
2022/07/16 04:53:29;;;;;;;5.63;3.20;;;13.50;99.90;;;;;;5018191;28;20177;-38
2022/07/16 04:55:55;;;;;;;4.60;3.23;;;13.60;99.90;;;;;;5017687;28;20208;-38
2022/07/16 04:58:20;;;;;;;7.53;2.90;;;13.70;99.90;;;;;;5020469;28;20526;-39
2022/07/16 05:00:46;;;;;;;5.20;3.07;;;13.70;99.90;;;;;;5019312;28;20284;-40
2022/07/16 05:03:11;;;;;;;4.67;3.07;;;13.80;99.90;;;;;;5020507;28;20192;-41
2022/07/16 05:05:38;;;;;;;4.47;3.20;;;13.90;99.90;;;;;;5020690;28;20258;-40
2022/07/16 05:08:07;;;;;;;4.87;2.60;;;13.90;99.90;;;;;;5019547;28;20180;-39
2022/07/16 05:10:32;;;;;;;5.70;2.90;;;14.00;99.90;;;;;;5017415;28;20255;-39
2022/07/16 05:12:58;;;;;;;5.90;2.77;;;14.10;99.90;;;;;;5017501;28;20216;-39
2022/07/16 05:15:25;;;;;;;3.87;2.53;;;14.20;99.90;;;;;;5017400;28;20174;-41
2022/07/16 05:17:51;;;;;;;5.73;3.00;;;14.30;99.90;;;;;;5016136;28;20182;-39
2022/07/16 05:20:17;;;;;;;5.73;3.10;;;14.30;99.90;;;;;;5017443;28;20205;-40
2022/07/16 05:22:43;;;;;;;4.67;2.70;;;14.40;99.90;;;;;;5017238;28;20317;-41
2022/07/16 05:25:09;;;;;;;4.67;2.67;;;14.50;99.90;;;;;;5017422;28;20191;-41
2022/07/16 05:27:35;;;;;;;3.53;2.87;;;14.60;99.90;;;;;;5017273;28;20209;-40
2022/07/16 05:30:03;;;;;;;4.93;2.97;;;14.70;99.90;;;;;;5017183;28;20728;-40
2022/07/16 05:32:28;;;;;;;7.57;3.30;;;14.80;99.90;;;;;;5017432;28;20182;-43
2022/07/16 05:34:54;;;;;;;9.13;3.07;;;14.90;99.90;;;;;;5017365;28;20221;-41
2022/07/16 05:37:19;;;;;;;9.53;3.57;;;14.90;99.90;;;;;;5016962;28;20538;-41
2022/07/16 05:39:45;;;;;;;4.70;2.83;;;14.90;99.90;;;;;;5016863;28;20208;-41
2022/07/16 05:42:11;;;;;;;3.50;2.90;;;15.00;99.90;;;;;;5016826;28;20193;-42
2022/07/16 05:44:36;;;;;;;7.17;2.80;;;15.10;99.90;;;;;;5017137;28;20190;-40
2022/07/16 05:47:02;;;;;;;12.60;2.90;;;15.10;99.90;;;;;;5016728;28;20197;-41
2022/07/16 05:49:28;;;;;;;4.23;2.70;;;15.30;99.90;;;;;;5017348;28;20284;-42
2022/07/16 05:51:53;;;;;;;4.47;2.93;;;15.40;99.90;;;;;;5016991;28;20537;-41
2022/07/16 05:54:19;;;;;;;5.53;2.77;;;15.50;99.90;;;;;;5017104;28;20181;-39
2022/07/16 05:56:44;;;;;;;4.37;2.87;;;15.70;99.90;;;;;;5017009;28;20181;-42
2022/07/16 05:59:10;;;;;;;6.97;2.97;;;15.90;99.90;;;;;;5016976;28;20205;-40
2022/07/16 06:01:36;;;;;;;3.57;2.70;;;16.10;99.90;;;;;;5017502;28;20277;-39
2022/07/16 06:04:01;;;;;;;5.17;2.60;;;16.20;99.90;;;;;;5016602;28;20265;-40
2022/07/16 06:06:27;;;;;;;5.70;2.90;;;16.30;99.90;;;;;;5016673;28;20221;-41
2022/07/16 06:08:53;;;;;;;4.77;2.57;;;16.30;99.90;;;;;;5016564;28;20255;-41
2022/07/16 06:11:18;;;;;;;3.40;2.33;;;16.30;99.90;;;;;;5016468;28;20299;-43
2022/07/16 06:13:44;;;;;;;4.10;3.00;;;16.40;99.90;;;;;;5016392;28;20190;-39
2022/07/16 06:16:10;;;;;;;8.30;3.20;;;16.40;99.90;;;;;;5016317;28;20185;-40
2022/07/16 06:18:35;;;;;;;4.97;2.63;;;16.40;99.90;;;;;;5015099;28;20663;-41
2022/07/16 06:21:02;;;;;;;4.10;2.40;;;16.40;99.90;;;;;;5016229;28;20292;-40
2022/07/16 06:23:28;;;;;;;8.43;3.23;;;16.40;99.90;;;;;;5016402;28;20713;-40
2022/07/16 06:25:53;;;;;;;4.37;2.93;;;16.40;99.90;;;;;;5016339;28;20186;-43
2022/07/16 06:28:19;;;;;;;3.60;2.70;;;16.50;99.90;;;;;;5016329;28;20736;-42
2022/07/16 06:30:44;;;;;;;5.17;2.70;;;16.50;99.90;;;;;;5016431;28;20205;-41
2022/07/16 06:33:10;;;;;;;6.17;3.40;;;16.50;99.90;;;;;;5016246;28;20638;-40
2022/07/16 06:35:36;;;;;;;7.57;3.20;;;16.50;99.90;;;;;;5016265;28;20169;-39
2022/07/16 06:38:04;;;;;;;6.30;3.90;;;16.50;99.90;;;;;;5015954;28;20518;-41
2022/07/16 06:40:30;;;;;;;7.10;3.30;;;16.60;99.90;;;;;;5015903;28;20205;-40
2022/07/16 06:42:56;;;;;;;4.17;2.83;;;16.70;99.90;;;;;;5015800;28;20177;-38
2022/07/16 06:45:22;;;;;;;8.73;3.43;;;16.70;99.90;;;;;;5015989;28;20264;-40
2022/07/16 06:47:48;;;;;;;8.43;3.57;;;16.90;99.90;;;;;;5014404;28;20182;-40
2022/07/16 06:50:13;;;;;;;7.40;3.57;;;17.00;99.90;;;;;;5015609;28;20205;-42
2022/07/16 06:52:39;;;;;;;6.10;3.70;;;17.20;99.90;;;;;;5016273;28;20169;-41
2022/07/16 06:55:05;;;;;;;11.00;3.43;;;17.30;99.90;;;;;;5015917;28;20182;-39
2022/07/16 06:57:31;;;;;;;7.40;3.50;;;17.50;99.90;;;;;;5015529;28;20247;-40
2022/07/16 06:59:57;;;;;;;5.20;3.70;;;17.70;99.90;;;;;;5016021;28;20205;-37
2022/07/16 07:02:22;;;;;;;7.30;3.40;;;17.90;99.90;;;;;;5015471;28;20186;-39
2022/07/16 07:04:48;;;;;;;6.33;3.40;;;18.20;99.90;;;;;;5015381;28;20204;-39
2022/07/16 07:07:14;;;;;;;7.43;3.63;;;18.50;99.90;;;;;;5015593;28;20189;-40
2022/07/16 07:09:40;;;;;;;8.90;4.03;;;18.70;99.90;;;;;;5015456;28;20567;-39
2022/07/16 07:12:05;;;;;;;9.13;4.10;;;18.80;99.90;;;;;;5015205;28;20181;-39
2022/07/16 07:14:31;;;;;;;5.13;3.37;;;18.80;99.90;;;;;;5015138;28;20188;-38
2022/07/16 07:16:56;;;;;;;5.77;3.47;;;18.90;99.90;;;;;;5015156;28;20256;-40
2022/07/16 07:19:22;;;;;;;6.23;3.77;;;18.90;99.90;;;;;;5015240;28;20220;-36
2022/07/16 07:21:48;;;;;;;5.47;4.07;;;19.00;99.90;;;;;;5015014;28;20186;-39
2022/07/16 07:24:13;;;;;;;6.97;3.77;;;19.10;99.90;;;;;;5015094;28;20189;-39
2022/07/16 07:26:39;;;;;;;5.13;3.30;;;19.10;99.90;;;;;;5015469;28;20185;-39
2022/07/16 07:29:04;;;;;;;5.10;3.30;;;19.20;99.90;;;;;;5014680;28;20273;-40
2022/07/16 07:31:30;;;;;;;7.63;3.50;;;19.20;99.90;;;;;;5014791;28;20617;-38
2022/07/16 07:33:55;;;;;;;6.20;3.67;;;19.20;99.90;;;;;;5013614;28;20185;-39
2022/07/16 07:36:21;;;;;;;7.83;3.57;;;19.30;99.90;;;;;;5015099;28;20703;-39
2022/07/16 07:38:46;;;;;;;4.83;3.20;;;19.30;99.90;;;;;;5014795;28;20177;-39
2022/07/16 07:41:12;;;;;;;6.23;3.70;;;19.40;99.90;;;;;;5015059;28;20209;-38
2022/07/16 07:43:38;;;;;;;7.10;3.97;;;19.40;99.90;;;;;;5014981;28;20605;-37
2022/07/16 07:46:03;;;;;;;4.37;3.57;;;19.50;99.90;;;;;;5014678;28;20819;-38
2022/07/16 07:48:29;;;;;;;5.57;3.53;;;19.50;99.90;;;;;;5014608;28;20212;-39
2022/07/16 07:50:55;;;;;;;3.93;3.53;;;19.50;99.90;;;;;;5014466;28;20270;-39
2022/07/16 07:53:20;;;;;;;5.07;3.70;;;19.60;99.90;;;;;;5014859;28;20705;-39
2022/07/16 07:55:46;;;;;;;5.53;3.57;;;19.80;99.90;;;;;;5015025;28;20185;-40
2022/07/16 07:58:11;;;;;;;4.77;3.70;;;19.80;99.90;;;;;;5014776;28;20177;-40
2022/07/16 08:00:37;;;;;;;5.97;3.70;;;19.80;99.90;;;;;;5014454;28;20205;-43
2022/07/16 08:03:02;;;;;;;5.30;3.63;;;19.90;99.90;;;;;;5014644;28;20189;-41
2022/07/16 08:05:28;;;;;;;4.40;3.40;;;19.90;99.90;;;;;;5014335;28;20610;-41
2022/07/16 08:07:54;;;;;;;6.87;3.30;;;19.90;99.90;;;;;;5014263;28;20193;-42
2022/07/16 08:10:20;;;;;;;4.27;3.30;;;19.90;99.90;;;;;;5014250;28;20214;-39
2022/07/16 08:12:45;;;;;;;5.23;3.33;;;20.10;99.90;;;;;;5014178;28;20209;-39
2022/07/16 08:15:11;;;;;;;5.87;3.50;;;20.20;99.90;;;;;;5014446;28;20643;-39
2022/07/16 08:17:41;;;;;;;4.63;3.37;;;20.40;99.90;;;;;;5015057;28;20196;-40
2022/07/16 08:20:08;;;;;;;6.23;2.90;;;20.60;99.90;;;;;;5014028;28;20201;-39
2022/07/16 08:22:34;;;;;;;4.43;3.17;;;20.70;99.90;;;;;;5014741;28;20184;-39
2022/07/16 08:27:44;;;;;;;3.57;2.40;;;20.50;99.90;;;;;;5014320;28;20244;-40
2022/07/16 08:30:10;;;;;;;4.23;2.50;;;20.40;99.90;;;;;;5012982;28;20213;-40
2022/07/16 08:32:35;;;;;;;2.00;1.80;;;20.40;99.90;;;;;;5014381;28;20660;-41
2022/07/16 08:35:01;;;;;;;3.60;1.50;;;20.40;99.90;;;;;;5013308;28;20273;-39
2022/07/16 08:37:38;;;;;;;2.90;1.60;;;20.30;99.90;;;;;;5015524;28;20220;-39
2022/07/16 08:40:07;;;;;;;4.10;1.90;;;20.30;99.90;;;;;;5015458;28;20296;-40
2022/07/16 08:42:33;;;;;;;7.70;1.77;;;20.40;99.90;;;;;;5014650;28;20189;-41
2022/07/16 08:45:00;;;;;;;1.60;1.50;;;20.40;99.90;;;;;;5018284;28;20181;-39
2022/07/16 08:47:27;;;;;;;2.30;1.70;;;20.40;99.90;;;;;;5018378;28;20185;-41
2022/07/16 08:49:53;;;;;;;1.50;1.23;;;20.40;99.90;;;;;;5015222;28;20217;-40
2022/07/16 08:52:20;;;;;;;2.47;1.20;;;20.50;99.90;;;;;;5017121;28;20185;-40
2022/07/16 08:54:48;;;;;;;2.50;1.50;;;20.50;99.90;;;;;;5016334;28;20181;-40
2022/07/16 08:57:15;;;;;;;2.97;1.57;;;20.60;99.90;;;;;;5016923;28;20166;-40
2022/07/16 08:59:41;;;;;;;6.63;1.60;;;20.60;99.90;;;;;;5016201;28;20669;-38
2022/07/16 09:02:06;;;;;;;2.10;1.00;;;20.50;99.90;;;;;;5014916;28;20192;-40
2022/07/16 09:04:32;;;;;;;3.13;0.90;;;20.30;99.90;;;;;;5013529;28;20586;-41
2022/07/16 09:06:57;;;;;;;2.53;1.20;;;20.10;99.90;;;;;;5013601;28;20173;-41
2022/07/16 09:09:23;;;;;;;1.10;0.80;;;19.90;99.90;;;;;;5013389;28;20201;-41
2022/07/16 09:11:49;;;;;;;2.57;0.80;;;19.90;99.90;;;;;;5013379;28;20209;-39
2022/07/16 09:14:16;;;;;;;2.00;0.90;;;19.80;99.90;;;;;;5013421;28;20188;-40
2022/07/16 09:16:43;;;;;;;1.07;0.70;;;19.80;99.90;;;;;;5013472;28;20185;-41
2022/07/16 09:19:12;;;;;;;1.63;1.03;;;19.80;99.90;;;;;;5013289;28;20657;-41
2022/07/16 09:22:00;;;;;;;1.43;0.90;;;19.90;99.90;;;;;;5012128;28;20192;-38
2022/07/16 09:24:41;;;;;;;2.00;0.90;;;19.90;99.90;;;;;;5009743;28;20208;-40
2022/07/16 09:27:11;;;;;;;1.03;0.80;;;20.10;99.90;;;;;;5013285;28;20185;-39
2022/07/16 09:29:47;;;;;;;1.97;1.00;;;20.10;99.90;;;;;;5013001;28;20731;-42
2022/07/16 09:32:29;;;;;;;1.23;1.13;;;20.20;99.90;;;;;;5013286;28;20178;-40
2022/07/16 09:35:10;;;;;;;1.43;0.80;;;20.30;99.90;;;;;;5013525;28;20253;-42
2022/07/16 09:37:54;;;;;;;1.73;1.00;;;20.50;99.90;;;;;;5013203;28;20189;-38
2022/07/16 09:40:42;;;;;;;1.67;0.90;;;20.70;99.90;;;;;;5013440;28;20604;-40
2022/07/16 09:43:13;;;;;;;3.90;0.70;;;20.80;99.90;;;;;;5013516;28;20169;-40
2022/07/16 09:45:56;;;;;;;0.63;0.53;;;21.10;99.90;;;;;;5014351;28;20189;-42
2022/07/16 09:48:23;;;;;;;2.13;0.87;;;21.20;99.90;;;;;;5017100;28;20197;-40
2022/07/16 09:50:51;;;;;;;1.63;0.70;;;21.20;99.90;;;;;;5017524;28;20206;-42
2022/07/16 09:53:26;;;;;;;1.27;0.70;;;21.10;99.90;;;;;;5016943;28;20220;-41
2022/07/16 09:56:05;;;;;;;1.97;0.93;;;21.20;99.90;;;;;;5017520;28;20169;-41
2022/07/16 09:58:32;;;;;;;1.90;0.70;;;21.30;99.90;;;;;;5017013;28;20169;-41
2022/07/16 10:00:59;;;;;;;0.97;0.80;;;21.60;99.90;;;;;;5016592;28;20257;-41
2022/07/16 10:03:26;;;;;;;1.37;0.80;;;21.90;99.90;;;;;;5017137;28;20185;-39
2022/07/16 10:05:52;;;;;;;1.47;0.87;;;22.00;99.90;;;;;;5015431;28;20182;-41
2022/07/16 10:08:18;;;;;;;2.33;0.77;;;22.00;99.90;;;;;;5016507;28;20181;-41
2022/07/16 10:10:44;;;;;;;1.30;0.70;;;22.00;99.90;;;;;;5016504;28;20220;-39
2022/07/16 10:13:12;;;;;;;3.30;0.70;;;22.10;99.90;;;;;;5016367;28;20180;-42
2022/07/16 10:15:39;;;;;;;1.80;0.80;;;22.20;99.90;;;;;;5016307;28;20174;-38
2022/07/16 10:18:36;;;;;;;1.17;0.80;;;22.30;99.90;;;;;;5016505;28;20525;-40
2022/07/16 10:21:10;;;;;;;0.77;0.70;;;22.20;99.90;;;;;;5016505;28;20208;-40
2022/07/16 10:23:37;;;;;;;1.43;0.90;;;22.20;99.90;;;;;;5016563;28;20620;-42
2022/07/16 10:26:09;;;;;;;0.70;0.70;;;22.30;99.90;;;;;;5016211;28;20185;-41
2022/07/16 10:28:57;;;;;;;2.40;1.07;;;22.20;99.90;;;;;;5015965;28;20293;-42
2022/07/16 10:31:41;;;;;;;1.43;0.90;;;22.30;99.90;;;;;;5015962;28;20197;-42
2022/07/16 10:34:31;;;;;;;2.03;0.90;;;22.40;99.90;;;;;;5016181;28;20162;-42
2022/07/16 10:36:57;;;;;;;2.53;0.70;;;22.40;99.90;;;;;;5018210;28;20166;-42
2022/07/16 10:39:25;;;;;;;2.97;0.67;;;22.30;99.90;;;;;;5016089;28;20205;-44
2022/07/16 10:42:01;;;;;;;1.00;0.70;;;22.10;99.90;;;;;;5015042;28;20182;-43
2022/07/16 10:44:45;;;;;;;1.87;0.73;;;22.00;99.90;;;;;;5017533;28;20637;-46
2022/07/16 10:47:11;;;;;;;4.33;1.13;;;22.10;99.90;;;;;;5016669;28;20170;-46
2022/07/16 10:49:37;;;;;;;1.03;0.80;;;22.30;99.90;;;;;;5016515;28;20209;-46
2022/07/16 10:52:14;;;;;;;2.80;1.03;;;22.60;99.90;;;;;;5016933;28;20181;-44
2022/07/16 10:54:48;;;;;;;1.70;0.90;;;22.80;99.90;;;;;;5016722;28;20564;-45
2022/07/16 10:57:16;;;;;;;1.40;0.90;;;22.90;99.90;;;;;;5015532;28;20622;-44
2022/07/16 10:59:47;;;;;;;2.10;0.90;;;22.60;99.90;;;;;;5016550;28;20201;-45
2022/07/16 11:02:16;;;;;;;2.50;0.90;;;22.40;99.90;;;;;;5016698;28;20158;-45
2022/07/16 11:04:46;;;;;;;1.67;1.20;;;22.40;99.90;;;;;;5016959;28;20287;-44
2022/07/16 11:07:15;;;;;;;0.90;0.70;;;22.60;99.90;;;;;;5016622;28;20189;-46
2022/07/16 11:09:43;;;;;;;4.10;1.20;;;22.70;99.90;;;;;;5016768;28;20248;-45
2022/07/16 11:12:17;;;;;;;2.20;0.90;;;22.70;99.90;;;;;;5016791;28;20227;-45
2022/07/16 11:14:48;;;;;;;3.10;0.83;;;22.70;99.90;;;;;;5016908;28;20173;-46
2022/07/16 11:17:16;;;;;;;2.83;0.77;;;22.80;99.90;;;;;;5017368;28;20641;-45
2022/07/16 11:19:44;;;;;;;0.57;0.57;;;22.90;99.90;;;;;;5016751;28;20201;-44
2022/07/16 11:22:10;;;;;;;1.37;0.90;;;22.90;99.90;;;;;;5017028;28;20181;-44
2022/07/16 11:24:44;;;;;;;0.97;0.87;;;22.80;99.90;;;;;;5017075;28;20181;-46
2022/07/16 11:27:09;;;;;;;2.90;0.93;;;22.70;99.90;;;;;;5017585;28;20158;-46
2022/07/16 11:29:35;;;;;;;1.90;0.90;;;23.00;99.90;;;;;;5017196;28;20220;-44
2022/07/16 11:32:01;;;;;;;1.67;0.90;;;23.10;99.90;;;;;;5017678;28;20302;-46
2022/07/16 11:34:35;;;;;;;4.10;0.80;;;23.30;99.90;;;;;;5017764;28;20261;-48
2022/07/16 11:37:01;;;;;;;1.00;0.80;;;23.50;99.90;;;;;;5017117;28;20162;-45
2022/07/16 11:39:28;;;;;;;0.83;0.70;;;23.40;99.90;;;;;;5017368;28;20557;-46
2022/07/16 11:41:56;;;;;;;1.33;0.90;;;23.20;99.90;;;;;;5017407;28;20186;-46
2022/07/16 11:44:25;;;;;;;0.97;0.77;;;22.90;99.90;;;;;;5017151;28;20178;-47
2022/07/16 11:46:59;;;;;;;1.13;0.73;;;22.90;99.90;;;;;;5016474;28;20686;-47
2022/07/16 11:49:24;;;;;;;1.73;0.90;;;23.00;99.90;;;;;;5016879;28;20201;-44
2022/07/16 11:51:51;;;;;;;1.73;0.80;;;23.00;99.90;;;;;;5016846;28;20277;-45
2022/07/16 11:54:17;;;;;;;1.63;0.80;;;22.90;99.90;;;;;;5017154;28;20181;-45
2022/07/16 11:56:43;;;;;;;2.57;1.17;;;23.00;99.90;;;;;;5018344;28;20193;-47
2022/07/16 11:59:47;;;;;;;1.77;0.90;;;23.30;99.90;;;;;;5018593;28;20320;-46
2022/07/16 12:02:16;;;;;;;1.00;0.90;;;23.30;99.90;;;;;;5013229;28;20242;-40
2022/07/16 12:04:43;;;;;;;2.70;0.93;;;23.10;99.90;;;;;;5014330;28;20193;-40
2022/07/16 12:07:34;;;;;;;2.87;0.90;;;23.00;99.90;;;;;;5014232;28;20577;-41
2022/07/16 12:10:02;;;;;;;2.00;1.03;;;23.10;99.90;;;;;;5013765;28;20221;-42
2022/07/16 12:12:36;;;;;;;6.70;1.10;;;23.40;99.90;;;;;;5014498;28;20189;-41
2022/07/16 12:15:12;;;;;;;2.73;1.10;;;23.40;99.90;;;;;;5014097;28;20170;-41
2022/07/16 12:17:45;;;;;;;1.90;0.80;;;23.30;99.90;;;;;;5014405;28;20184;-40
2022/07/16 12:20:13;;;;;;;2.47;1.00;;;23.10;99.90;;;;;;5014127;28;20197;-41
2022/07/16 12:23:01;;;;;;;0.77;0.67;;;23.10;99.90;;;;;;5013986;28;20626;-39
2022/07/16 12:25:37;;;;;;;1.90;1.00;;;23.30;99.90;;;;;;5014094;28;20181;-40
2022/07/16 12:28:22;;;;;;;2.90;1.00;;;23.30;99.90;;;;;;5014293;28;20217;-41
2022/07/16 12:30:59;;;;;;;2.50;1.03;;;23.30;99.30;;;;;;5012872;28;20275;-38
2022/07/16 12:33:30;;;;;;;5.40;1.10;;;23.30;99.80;;;;;;5014360;28;20188;-41
2022/07/16 12:36:07;;;;;;;2.40;1.00;;;23.20;98.70;;;;;;5014031;28;20212;-41
2022/07/16 12:38:45;;;;;;;0.87;0.80;;;23.00;99.90;;;;;;5013855;28;20161;-41
2022/07/16 12:41:16;;;;;;;2.10;1.10;;;23.00;99.10;;;;;;5013872;28;20244;-40
2022/07/16 12:43:44;;;;;;;2.53;1.20;;;22.90;99.50;;;;;;5013956;28;20283;-40
2022/07/16 12:46:10;;;;;;;3.70;1.10;;;23.00;99.70;;;;;;5014129;28;20665;-40
2022/07/16 12:48:46;;;;;;;1.77;0.80;;;23.00;98.80;;;;;;5014200;28;20235;-39
2022/07/16 12:51:14;;;;;;;3.70;1.10;;;22.90;98.60;;;;;;5013618;28;20213;-41
2022/07/16 12:53:40;;;;;;;3.33;0.90;;;22.90;99.50;;;;;;5013735;28;20185;-41
2022/07/16 12:58:53;;;;;;;3.00;0.90;;;23.40;99.90;;;;;;5014026;28;20303;-42